Terminal Aerodrome Forecast
Issued by NWS Wichita, KS

Home | Current Version | Previous Version | Text Only | Print | Product List | Glossary Off
Versions: 1 2 3 4 5 6 7 8 9 10 11 12 13 14 15 16 17 18 19 20 21 22 23

000
FTUS43 KICT 210335 AAB
TAFICT
TAF AMD
KICT 210335Z 2104/2124 07007KT P6SM VCTS SCT060CB OVC100
     FM211400 07014G20KT 6SM -SHRA VCTS OVC030CB
     FM211800 07015G23KT 6SM -SHRA OVC020=

USA.gov is the U.S. government's official web portal to all federal, state and local government web resources and services.